»·PEaware :: SWA2370 KLAX-KDEN

SWA2370 :: KLAX-KDEN

FLIGHT INFORMATION

Flight Status: Arrived
Operator:
Southwest Airlines
More flights by this operator :: More flights under this callsign
Pilot: Joseph C. (259)
Aircraft: BOEING 737-800
(B738)
More flights by this aircraft type
Origin: KLAX Los Angeles Intl
United States
Destination: KDEN Denver Intl
United States
More flights between these airports :: More routes between these airports
Route: +ORCKA3 LAS J146 DVC WOLLF TELLR2
File this flight plan on PilotEdge
Remarks:
Altitude:
(Current/Filed)
35,000ft
Speed:
(Current/Filed)
462kts
Departed: 08-Nov-19 10:11 AM
Arrived: 08-Nov-19 12:09 PM
Distance/Time
Traveled:
747nm/1:58
Distance/Time
To Go:
Arrived

Flight Plot

Page will automatically refresh every two minutes.

Flight plan parsing failed; only flown route is shown


Map Options




Map Legend


Flown Route
Filed Route
Departure Airport
Arrival Airport
Navaid (VOR, NDB)
Fix

Horizontal Profiles

Position Reports

Time Latitude Longitude Heading Altitude Ground
Speed
08-Nov-19 09:20 33.947186 -118.400767 263 134ft 0kts
08-Nov-19 09:21 33.947186 -118.400767 263 134ft 0kts
08-Nov-19 09:22 33.947186 -118.400767 263 134ft 0kts
08-Nov-19 09:23 33.947186 -118.400767 263 134ft 0kts
08-Nov-19 09:24 33.947186 -118.400767 263 134ft 0kts
08-Nov-19 09:25 33.947186 -118.400767 263 134ft 0kts
08-Nov-19 09:26 33.947186 -118.400767 263 134ft 0kts
08-Nov-19 09:27 33.947186 -118.400767 263 134ft 0kts
08-Nov-19 09:28 33.947186 -118.400767 263 134ft 0kts
08-Nov-19 09:29 33.947186 -118.400767 263 134ft 0kts
08-Nov-19 09:30 33.947186 -118.400767 263 134ft 0kts
08-Nov-19 09:31 33.947186 -118.400767 263 134ft 0kts
08-Nov-19 09:32 33.947186 -118.400767 263 134ft 0kts
08-Nov-19 09:33 33.947186 -118.400767 263 134ft 0kts
08-Nov-19 09:34 33.947186 -118.400767 263 134ft 0kts
08-Nov-19 09:35 33.947186 -118.400767 263 134ft 0kts
08-Nov-19 09:36 33.947186 -118.400767 263 134ft 0kts
08-Nov-19 09:37 33.947186 -118.400767 263 134ft 0kts
08-Nov-19 09:38 33.947186 -118.400767 263 134ft 0kts
08-Nov-19 09:39 33.947186 -118.400767 263 134ft 0kts
08-Nov-19 09:40 33.947186 -118.400767 263 134ft 0kts
08-Nov-19 09:41 33.947186 -118.400767 263 134ft 0kts
08-Nov-19 09:42 33.947186 -118.400767 263 134ft 0kts
08-Nov-19 09:43 33.947186 -118.400767 263 134ft 0kts
08-Nov-19 09:44 33.947186 -118.400767 263 134ft 0kts
08-Nov-19 09:45 33.947186 -118.400767 263 134ft 0kts
08-Nov-19 09:46 33.947186 -118.400767 263 134ft 0kts
08-Nov-19 09:47 33.947186 -118.400767 263 134ft 0kts
08-Nov-19 09:48 33.947186 -118.400767 263 134ft 0kts
08-Nov-19 09:49 33.947186 -118.400767 263 134ft 0kts
08-Nov-19 09:50 33.947186 -118.400767 263 134ft 0kts
08-Nov-19 09:51 33.947186 -118.400767 263 134ft 0kts
08-Nov-19 09:52 33.947186 -118.400767 263 134ft 0kts
08-Nov-19 09:53 33.947186 -118.400767 263 134ft 0kts
08-Nov-19 09:54 33.947186 -118.400767 263 134ft 0kts
08-Nov-19 09:55 33.947194 -118.400687 263 134ft 0kts
08-Nov-19 09:56 33.947158 -118.400360 311 134ft 0kts
08-Nov-19 09:57 33.947158 -118.400360 311 134ft 0kts
08-Nov-19 09:58 33.947158 -118.400360 311 134ft 0kts
08-Nov-19 09:59 33.947158 -118.400360 311 134ft 0kts
08-Nov-19 10:00 33.947223 -118.400363 6 134ft 0kts
08-Nov-19 10:01 33.947223 -118.400363 6 134ft 0kts
08-Nov-19 10:02 33.947223 -118.400363 6 134ft 0kts
08-Nov-19 10:03 33.947223 -118.400363 6 134ft 0kts
08-Nov-19 10:04 33.947223 -118.400363 6 134ft 0kts
08-Nov-19 10:05 33.948182 -118.400231 344 134ft 6kts
08-Nov-19 10:06 33.949127 -118.401534 307 134ft 0kts
08-Nov-19 10:07 33.949127 -118.401535 307 134ft 0kts
08-Nov-19 10:08 33.949128 -118.401536 307 134ft 0kts
08-Nov-19 10:09 33.950131 -118.401991 297 134ft 8kts
08-Nov-19 10:10 33.949400 -118.409509 263 134ft 110kts
08-Nov-19 10:11 33.942920 -118.467319 260 2249ft 206kts
08-Nov-19 10:12 33.931069 -118.551032 260 3263ft 270kts
08-Nov-19 10:13 33.919378 -118.634528 261 5339ft 247kts
08-Nov-19 10:14 33.870716 -118.663740 143 8182ft 239kts
08-Nov-19 10:15 33.850264 -118.600522 74 10968ft 221kts
08-Nov-19 10:17 33.888752 -118.524034 57 12079ft 304kts
08-Nov-19 10:18 33.939978 -118.428195 57 13086ft 375kts
08-Nov-19 10:19 33.998785 -118.317796 57 15131ft 399kts
08-Nov-19 10:20 34.061873 -118.205430 56 17291ft 411kts
08-Nov-19 10:21 34.074008 -118.184014 56 17673ft 413kts
08-Nov-19 10:24 34.327268 -117.733455 57 23545ft 456kts
08-Nov-19 10:25 34.400901 -117.606644 55 24860ft 462kts
08-Nov-19 10:26 34.476708 -117.479752 55 26064ft 468kts
08-Nov-19 10:27 34.553284 -117.350507 55 27312ft 470kts
08-Nov-19 10:28 34.629172 -117.223147 55 28916ft 463kts
08-Nov-19 10:29 34.703812 -117.096636 56 30431ft 458kts
08-Nov-19 10:30 34.777639 -116.971541 56 31827ft 453kts
08-Nov-19 10:31 34.850331 -116.847057 56 33144ft 449kts
08-Nov-19 10:32 34.922857 -116.724162 53 34391ft 446kts
08-Nov-19 10:33 35.007006 -116.612270 49 35327ft 449kts
08-Nov-19 10:34 35.091785 -116.500614 49 35342ft 446kts
08-Nov-19 10:35 35.176012 -116.389265 49 35342ft 445kts
08-Nov-19 10:35 35.246128 -116.296553 49 35344ft 444kts
08-Nov-19 10:37 35.342640 -116.167554 52 35348ft 441kts
08-Nov-19 10:38 35.403202 -116.038826 66 35343ft 436kts
08-Nov-19 10:38 35.445558 -115.926362 66 35349ft 437kts
08-Nov-19 10:40 35.504080 -115.770008 67 35354ft 435kts
08-Nov-19 10:41 35.554906 -115.635019 66 35360ft 437kts
08-Nov-19 10:41 35.597324 -115.522239 66 35364ft 437kts
08-Nov-19 10:42 35.648057 -115.386166 67 35372ft 438kts
08-Nov-19 10:43 35.698795 -115.249316 67 35379ft 439kts
08-Nov-19 10:44 35.748447 -115.114782 67 35379ft 440kts
08-Nov-19 10:45 35.797966 -114.980027 67 35377ft 440kts
08-Nov-19 10:46 35.848369 -114.842271 67 35370ft 441kts
08-Nov-19 10:47 35.898675 -114.704173 67 35367ft 441kts
08-Nov-19 10:48 35.948882 -114.565739 67 35361ft 440kts
08-Nov-19 10:49 35.998641 -114.427921 67 35372ft 440kts
08-Nov-19 10:50 36.047967 -114.290701 67 35375ft 437kts
08-Nov-19 10:51 36.097165 -114.153225 67 35379ft 437kts
08-Nov-19 10:52 36.146272 -114.015391 67 35384ft 437kts
08-Nov-19 10:53 36.195276 -113.877234 67 35399ft 437kts
08-Nov-19 10:54 36.243946 -113.739400 67 35429ft 438kts
08-Nov-19 10:55 36.292535 -113.601178 67 35443ft 438kts
08-Nov-19 10:56 36.341055 -113.462523 67 35466ft 439kts
08-Nov-19 10:57 36.389525 -113.323378 67 35472ft 438kts
08-Nov-19 10:58 36.437781 -113.184213 67 35476ft 439kts
08-Nov-19 10:59 36.485932 -113.044712 67 35480ft 440kts
08-Nov-19 11:00 36.534164 -112.904323 67 35491ft 440kts
08-Nov-19 11:01 36.582024 -112.764370 67 35491ft 440kts
08-Nov-19 11:02 36.629844 -112.623878 67 35492ft 441kts
08-Nov-19 11:03 36.677511 -112.483176 67 35494ft 441kts
08-Nov-19 11:04 36.725169 -112.341835 67 35495ft 441kts
08-Nov-19 11:05 36.772478 -112.200859 67 35495ft 441kts
08-Nov-19 11:06 36.819655 -112.059612 67 35499ft 441kts
08-Nov-19 11:07 36.866731 -111.917976 67 35500ft 442kts
08-Nov-19 11:08 36.913610 -111.776274 67 35485ft 442kts
08-Nov-19 11:09 36.960438 -111.634031 67 35482ft 442kts
08-Nov-19 11:10 37.007092 -111.491627 67 35481ft 442kts
08-Nov-19 11:11 37.053431 -111.349495 67 35482ft 442kts
08-Nov-19 11:12 37.099738 -111.206764 67 35487ft 442kts
08-Nov-19 11:13 37.145943 -111.063644 67 35492ft 442kts
08-Nov-19 11:14 37.191901 -110.920586 67 35497ft 442kts
08-Nov-19 11:15 37.237777 -110.777072 67 35502ft 443kts
08-Nov-19 11:16 37.283413 -110.633594 67 35511ft 442kts
08-Nov-19 11:17 37.328851 -110.490021 67 35518ft 442kts
08-Nov-19 11:18 37.374029 -110.346550 67 35525ft 442kts
08-Nov-19 11:19 37.419061 -110.202824 67 35533ft 441kts
08-Nov-19 11:20 37.463985 -110.058721 67 35541ft 442kts
08-Nov-19 11:21 37.508635 -109.914762 66 35551ft 442kts
08-Nov-19 11:22 37.553130 -109.770581 67 35559ft 442kts
08-Nov-19 11:23 37.597576 -109.625824 67 35548ft 442kts
08-Nov-19 11:24 37.641765 -109.481170 67 35549ft 442kts
08-Nov-19 11:25 37.685791 -109.336332 67 35545ft 442kts
08-Nov-19 11:26 37.730374 -109.191691 67 35535ft 443kts
08-Nov-19 11:27 37.774153 -109.046153 67 35524ft 443kts
08-Nov-19 11:28 37.822548 -108.902993 58 35518ft 441kts
08-Nov-19 11:29 37.886881 -108.771023 56 35517ft 440kts
08-Nov-19 11:30 37.950967 -108.639186 56 35520ft 440kts
08-Nov-19 11:31 38.015319 -108.507096 55 35531ft 439kts
08-Nov-19 11:32 38.079276 -108.375523 55 35534ft 439kts
08-Nov-19 11:33 38.143040 -108.243236 55 35538ft 439kts
08-Nov-19 11:34 38.206681 -108.110590 56 35542ft 438kts
08-Nov-19 11:35 38.270151 -107.977743 56 35541ft 439kts
08-Nov-19 11:36 38.333713 -107.844908 56 35537ft 439kts
08-Nov-19 11:37 38.396830 -107.711224 56 35535ft 440kts
08-Nov-19 11:38 38.459581 -107.577680 56 35542ft 440kts
08-Nov-19 11:39 38.520316 -107.441780 57 35544ft 440kts
08-Nov-19 11:40 38.580976 -107.305642 57 35541ft 442kts
08-Nov-19 11:41 38.641993 -107.169165 56 35556ft 441kts
08-Nov-19 11:42 38.703090 -107.032205 56 35560ft 442kts
08-Nov-19 11:43 38.763820 -106.895587 56 35558ft 442kts
08-Nov-19 11:44 38.823999 -106.758300 56 35545ft 442kts
08-Nov-19 11:45 38.885130 -106.620935 54 35540ft 441kts
08-Nov-19 11:46 38.948144 -106.485865 55 35038ft 442kts
08-Nov-19 11:47 39.011011 -106.349202 55 31977ft 447kts
08-Nov-19 11:48 39.074447 -106.209523 55 28709ft 456kts
08-Nov-19 11:49 39.138215 -106.066919 56 25466ft 459kts
08-Nov-19 11:50 39.200830 -105.925977 56 22768ft 448kts
08-Nov-19 11:51 39.261130 -105.788273 56 20728ft 421kts
08-Nov-19 11:52 39.314589 -105.665824 55 19862ft 366kts
08-Nov-19 11:53 39.362065 -105.557633 54 19007ft 334kts
08-Nov-19 11:54 39.397068 -105.447042 77 17736ft 340kts
08-Nov-19 11:55 39.402042 -105.324573 82 16388ft 339kts
08-Nov-19 11:56 39.420183 -105.220525 68 15548ft 314kts
08-Nov-19 11:57 39.445792 -105.113794 68 14144ft 308kts
08-Nov-19 11:58 39.471496 -105.009113 68 12878ft 301kts
08-Nov-19 11:59 39.493972 -104.919683 63 11901ft 281kts
08-Nov-19 12:00 39.536613 -104.842654 48 10806ft 250kts
08-Nov-19 12:01 39.576944 -104.776579 47 9721ft 230kts
08-Nov-19 12:02 39.620880 -104.724069 28 8635ft 202kts
08-Nov-19 12:03 39.668110 -104.687530 27 7991ft 194kts
08-Nov-19 12:04 39.716745 -104.660137 359 7561ft 188kts
08-Nov-19 12:05 39.765753 -104.660428 355 6758ft 158kts
08-Nov-19 12:06 39.810036 -104.660673 356 5853ft 159kts
08-Nov-19 12:07 39.847845 -104.660315 0 5439ft 62kts
08-Nov-19 12:08 39.852752 -104.661416 330 5439ft 0kts
08-Nov-19 12:09 39.853317 -104.661822 331 5439ft 5kts
08-Nov-19 12:10 39.856125 -104.662356 359 5439ft 14kts
08-Nov-19 12:11 39.860596 -104.662316 1 5439ft 22kts
08-Nov-19 12:12 39.865067 -104.663094 270 5439ft 9kts
08-Nov-19 12:13 39.864757 -104.667129 270 5439ft 11kts
08-Nov-19 12:14 39.864793 -104.671283 270 5439ft 14kts
08-Nov-19 12:15 39.864823 -104.676116 270 5439ft 12kts
08-Nov-19 12:16 39.863719 -104.678133 179 5439ft 5kts
08-Nov-19 12:17 39.863595 -104.678132 179 5439ft 0kts

Navigation Log

Ident Type
Flight plan parsing failed, navigation log unavailable